My Meet Scores
Claire Studenroth, Gym Kinetics Gymnastics - MyMeetScores.com
Top100 | Top Teams | Upcoming Meets | Completed Meets | Latest | Add Scores | Help| Support | Bookmark and Share

Claire Studenroth, Gym Kinetics Gymnastics
Personal Bests
LevelVault BarsBeamFloorAA
39.1008.900 8.9258.72535.100
XS9.6009.575 9.7009.30038.050
Meet Scores
Date Meet Team Session Level Division Vault Bars Beam Floor AA
2019-04-13 2019 Illinois XB, XS State Championships Gym Kinetics Gymnastics 2 XS Sr B 9.600 3 9.575 18T 9.575 3T 9.300 9T 38.050 8
2019-03-01 NGCD Academy's 2019 Flip'r Invitational Gym Kinetics Gymnastics 8 XS Jr B 9.200 10 9.125 12 9.500 3 9.125 11 36.950 7T
2019-02-23 Kinetic Classic 2019 Gym Kinetics Gymnastics 1 XS Older 8.800 10T 9.050 13 9.475 4 8.625 13 35.950 12
2019-02-08 Midwest Twisters Harley Meet Womens Gym Kinetics Gymnastics S10 XS 11 yrs. 8.850 6 9.150 8T 9.350 7T 8.700 18 36.050 11
2019-01-18 2019 Bravo Classic Gym Kinetics Gymnastics 10B XS Sr 9.250 2 9.150 8T 9.525 2 8.150 14 36.075 4
2019-01-11 St Jude Benefit Meet Gym Kinetics Gymnastics 7C XS Sr B 9.325 3T 9.175 15 9.600 1 8.600 17T 36.700 7
2018-12-14 2018 Aspire Classic Gym Kinetics Gymnastics 3 XS Older 9.150 3 9.300 10T 9.475 1 8.900 9T 36.825 2
2018-04-06 XCEL State Championships Gym Kinetics Gymnastics 5A XS Jr B 8.950 21T 8.850 31 9.700 1 8.775 27 36.275 21
2018-02-23 Kinetic Classic Gym Kinetics Gymnastics 8 XS Younger 8.450 60T 8.950 49T 9.100 38T 8.700 76T 35.200 58T
2018-02-03 Midwest Games Gym Kinetics Gymnastics 2 XS SR A 8.900 7 8.925 10 9.300 2 8.500 14 35.625 9
2018-01-19 2018 Bravo Classic Gym Kinetics Gymnastics 10A XS Jr 8.950 8T 8.850 15T 9.625 1 8.675 9 36.100 8
2017-12-15 2017 Aspire Classic Gym Kinetics Gymnastics 11B XS Sr A 9.150 7 9.450 11T 9.275 3 8.900 12T 36.775 9
2017-03-30 2017 Illinois Level 3 & 5 State United Gymnastics Academy All 3 Sr A 8.850 31T 7.950 33 8.925 21 7.950 32 33.675 30
2017-03-10 Lucky Invitational United Gymnastics Academy B03 3 Sr B 8.800 10 8.900 8 8.725 6T 8.675 9 35.100 9
2017-02-17 Big Classic United Gymnastics Academy B 3 Child D 8.950 26T 8.125 28 8.750 16T 8.450 31 34.275 28
2017-01-27 2017 UGA Invitational United Gymnastics Academy B5 3 Senior 8.000 14 7.900 14 8.675 8 8.200 13 32.775 14
2017-01-13 Legacy Elite Winter Classic United Gymnastics Academy B2 3 Jr 8.650 12 7.800 12 8.600 9 8.725 11 33.775 12
2016-12-16 2016 Aspire Classic United Gymnastics Academy 12 3 Older 8.750 18 8.350 17T 8.450 14T 8.150 19 33.700 19
2016-12-09 St. Nick Invite United Gymnastics Academy 5 3 All 8.675 80T 8.425 56 8.750 53 8.400 71T 34.250 64
2016-03-04 2016 Illinois Level 3 State Championships United Gymnastics Academy 3 Youth-F 9.000 26 8.400 25 8.250 17 8.100 31 33.750 25
2016-02-20 Big Classic United Gymnastics Academy 4B 3 Child B 8.550 18 7.900 18 8.925 10T 8.100 18 33.475 18
2016-01-15 2016 Bravo Classic United Gymnastics Academy 15A 3 8yrs 8.850 23 8.250 24 8.550 17T 7.925 23 33.575 23
2016-01-08 Legacy Elite Winter Classic United Gymnastics Academy 2B 3 Ch A 8.400 10 8.200 7 8.750 6T 7.800 13 33.150 11
2015-12-18 2015 Aspire Classic United Gymnastics Academy 9 3 Older 9.100 14T 8.150 19 8.875 14 8.000 20 34.125 20
2015-12-11 St. Nick Invite United Gymnastics Academy 5B 3 All 8.600 37T 8.400 38T 7.400 45T 8.150 40T 32.550 42T
Get your scores on
a t-shirt, pin, or hoodie

www.lazysuits.com